createdAt,value
2023-05-01T00:00:08.365Z,539
2023-05-01T00:01:10.228Z,538.8
2023-05-01T00:02:12.297Z,539.2
2023-05-01T00:03:15.162Z,539
2023-05-01T00:04:18.331Z,539.3
2023-05-01T00:05:20.282Z,538.9
2023-05-01T00:06:22.369Z,539
2023-05-01T00:07:24.175Z,538.9
2023-05-01T00:08:26.021Z,538.2
2023-05-01T00:09:27.886Z,538.3
2023-05-01T00:10:29.538Z,538.4
2023-05-01T00:11:31.408Z,538.3
2023-05-01T00:12:33.012Z,538.1
2023-05-01T00:13:34.708Z,538
2023-05-01T00:14:36.510Z,537.9
2023-05-01T00:15:38.358Z,537.8
2023-05-01T00:16:40.679Z,537.8
2023-05-01T00:17:42.694Z,537.8
2023-05-01T00:18:44.633Z,538.2
2023-05-01T00:19:46.474Z,537.9
2023-05-01T00:20:48.361Z,537.8
2023-05-01T00:21:50.294Z,537.7
2023-05-01T00:22:52.230Z,537.9
2023-05-01T00:23:54.084Z,538.1
2023-05-01T00:24:55.924Z,537.7
2023-05-01T00:25:57.790Z,537.8
2023-05-01T00:26:59.629Z,538
2023-05-01T00:28:01.486Z,538.2
2023-05-01T00:29:03.337Z,537.7
2023-05-01T00:30:04.999Z,537.6
2023-05-01T00:31:06.839Z,537.6
2023-05-01T00:32:09.012Z,537.9
2023-05-01T00:33:11.487Z,537.8
2023-05-01T00:34:13.307Z,537.5
2023-05-01T00:35:15.155Z,537.6
2023-05-01T00:36:17.058Z,537.7
2023-05-01T00:37:18.971Z,537.6
2023-05-01T00:38:20.810Z,537.5
2023-05-01T00:39:22.758Z,537.6
2023-05-01T00:40:24.618Z,537.3
2023-05-01T00:41:26.457Z,537.2
2023-05-01T00:42:28.417Z,537.2
2023-05-01T00:43:30.256Z,537
2023-05-01T00:44:32.108Z,537.1
2023-05-01T00:45:34.085Z,537.1
2023-05-01T00:46:35.964Z,536.9
2023-05-01T00:47:38.327Z,536.6
2023-05-01T00:48:40.237Z,537.2
2023-05-01T00:49:42.082Z,537.2
2023-05-01T00:50:43.940Z,537.2
2023-05-01T00:51:45.907Z,537
2023-05-01T00:52:47.730Z,536.7
2023-05-01T00:53:49.554Z,537.1
2023-05-01T00:54:51.408Z,536.8
2023-05-01T00:55:53.283Z,537
2023-05-01T00:56:55.056Z,536.9
2023-05-01T00:57:56.882Z,536.4
2023-05-01T00:58:58.749Z,536.1
2023-05-01T01:00:03.558Z,536.5
2023-05-01T01:01:05.723Z,535.5
2023-05-01T01:02:07.548Z,535.7
2023-05-01T01:03:10.005Z,535.4
2023-05-01T01:04:12.164Z,535.5
2023-05-01T01:05:14.035Z,535.4
2023-05-01T01:06:15.998Z,535.7
2023-05-01T01:07:17.951Z,535.4
2023-05-01T01:08:19.568Z,535.3
2023-05-01T01:09:21.168Z,535.3
2023-05-01T01:10:22.831Z,535.2
2023-05-01T01:11:24.443Z,535.4
2023-05-01T01:12:26.073Z,535.4
2023-05-01T01:13:27.903Z,535.6
2023-05-01T01:14:29.627Z,535.5
2023-05-01T01:15:31.193Z,535.2
2023-05-01T01:16:33.151Z,535.2
2023-05-01T01:17:35.114Z,534.9
2023-05-01T01:18:36.800Z,534.9
2023-05-01T01:19:38.446Z,534.9
2023-05-01T01:20:40.240Z,535
2023-05-01T01:21:41.877Z,534.5
2023-05-01T01:22:43.667Z,534.5
2023-05-01T01:23:45.276Z,534.3
2023-05-01T01:24:46.955Z,534.7
2023-05-01T01:25:48.887Z,534.1
2023-05-01T01:26:50.525Z,534.2
2023-05-01T01:27:52.328Z,534.2
2023-05-01T01:28:54.121Z,533.9
2023-05-01T01:29:57.513Z,534.3
2023-05-01T01:30:59.583Z,534.3
2023-05-01T01:32:01.415Z,534.1
2023-05-01T01:33:03.315Z,534.2
2023-05-01T01:34:05.078Z,534.2
2023-05-01T01:35:06.961Z,534
2023-05-01T01:36:08.799Z,534.3
2023-05-01T01:37:10.552Z,534.2
2023-05-01T01:38:12.424Z,534.1
2023-05-01T01:39:14.261Z,534
2023-05-01T01:40:15.977Z,534.3
2023-05-01T01:41:17.854Z,534.2
2023-05-01T01:42:19.717Z,534.1
2023-05-01T01:43:21.483Z,533.9
2023-05-01T01:44:23.306Z,534.2
2023-05-01T01:45:25.085Z,533.8
2023-05-01T01:46:27.230Z,534.3
2023-05-01T01:47:29.249Z,534.2
2023-05-01T01:48:31.126Z,534
2023-05-01T01:49:32.859Z,534.3
2023-05-01T01:50:34.607Z,534.2
2023-05-01T01:51:36.452Z,534.8
2023-05-01T01:52:38.303Z,534.7
2023-05-01T01:53:39.910Z,534.8
2023-05-01T01:54:41.516Z,534.7
2023-05-01T01:55:43.354Z,534.8
2023-05-01T01:56:45.308Z,534.8
2023-05-01T01:57:47.166Z,534.7
2023-05-01T01:58:49.005Z,534.9
2023-05-01T01:59:50.730Z,535.1
2023-05-01T02:00:52.600Z,534.8
2023-05-01T02:01:54.906Z,534.9
2023-05-01T02:02:57.161Z,535
2023-05-01T02:03:59.511Z,534.8
2023-05-01T02:05:01.422Z,535
2023-05-01T02:06:03.423Z,535.1
2023-05-01T02:07:05.444Z,535.1
2023-05-01T02:08:07.288Z,535
2023-05-01T02:09:09.269Z,534.9
2023-05-01T02:10:11.089Z,535
2023-05-01T02:11:12.931Z,535
2023-05-01T02:12:14.902Z,534.8
2023-05-01T02:13:16.665Z,534.4
2023-05-01T02:14:18.595Z,534.4
2023-05-01T02:15:20.450Z,534.5
2023-05-01T02:16:22.514Z,534.5
2023-05-01T02:17:24.504Z,534.6
2023-05-01T02:18:26.401Z,535
2023-05-01T02:19:28.228Z,534.9
2023-05-01T02:20:30.195Z,534.8
2023-05-01T02:21:32.055Z,535.2
2023-05-01T02:22:33.898Z,535.2
2023-05-01T02:23:35.463Z,535.2
2023-05-01T02:24:37.226Z,535.4
2023-05-01T02:25:39.051Z,535.3
2023-05-01T02:26:40.889Z,535.4
2023-05-01T02:27:42.851Z,535.7
2023-05-01T02:28:44.703Z,535.2
2023-05-01T02:29:46.532Z,535.3
2023-05-01T02:30:48.484Z,535.3
2023-05-01T02:31:50.584Z,535.1
2023-05-01T02:32:52.764Z,535.3
2023-05-01T02:33:54.658Z,535.1
2023-05-01T02:34:56.414Z,535.1
2023-05-01T02:35:58.343Z,535.4
2023-05-01T02:37:00.220Z,535.4
2023-05-01T02:38:02.067Z,535.5
2023-05-01T02:39:04.012Z,535.6
2023-05-01T02:40:05.900Z,535.5
2023-05-01T02:41:07.710Z,535.7
2023-05-01T02:42:09.576Z,535.8
2023-05-01T02:43:11.511Z,535.6
2023-05-01T02:44:16.239Z,535.6
2023-05-01T02:45:18.090Z,535.8
2023-05-01T02:46:20.303Z,535.8
2023-05-01T02:47:22.408Z,535.7
2023-05-01T02:48:24.265Z,535.5
2023-05-01T02:49:25.954Z,535.6
2023-05-01T02:50:27.741Z,535.2
2023-05-01T02:51:29.586Z,535.6
2023-05-01T02:52:31.439Z,535.2
2023-05-01T02:53:33.295Z,535.3
2023-05-01T02:54:35.146Z,535.3
2023-05-01T02:55:37.123Z,534.9
2023-05-01T02:56:38.948Z,535
2023-05-01T02:57:40.801Z,534.8
2023-05-01T02:58:42.639Z,534.8
2023-05-01T02:59:44.502Z,534.6
2023-05-01T03:00:46.684Z,534.5
2023-05-01T03:01:49.034Z,534.8
2023-05-01T03:02:50.992Z,535
2023-05-01T03:03:53.149Z,534.7
2023-05-01T03:04:55.078Z,534.6
2023-05-01T03:05:57.088Z,534.5
2023-05-01T03:06:59.087Z,534.4
2023-05-01T03:08:00.939Z,534.3
2023-05-01T03:09:02.779Z,533.9
2023-05-01T03:10:04.673Z,533.6
2023-05-01T03:11:06.635Z,533.7
2023-05-01T03:12:08.435Z,533.4
2023-05-01T03:13:10.293Z,533.1
2023-05-01T03:14:12.238Z,532.7
2023-05-01T03:15:14.199Z,532.7
2023-05-01T03:16:16.389Z,532.8
2023-05-01T03:17:18.188Z,533.1
2023-05-01T03:18:19.952Z,533.1
2023-05-01T03:19:22.126Z,533.4
2023-05-01T03:20:27.718Z,533.3
2023-05-01T03:21:29.488Z,533.1
2023-05-01T03:22:31.342Z,533.3
2023-05-01T03:23:33.184Z,533.4
2023-05-01T03:24:35.038Z,533.2
2023-05-01T03:25:36.993Z,533.5
2023-05-01T03:26:38.767Z,533.2
2023-05-01T03:27:40.592Z,532.8
2023-05-01T03:28:42.254Z,532.3
2023-05-01T03:29:44.186Z,532
2023-05-01T03:30:46.130Z,532.1
2023-05-01T03:31:48.011Z,532.1
2023-05-01T03:32:50.050Z,531.9
2023-05-01T03:33:51.902Z,532
2023-05-01T03:34:53.948Z,532
2023-05-01T03:35:55.713Z,532.2
2023-05-01T03:36:57.539Z,532
2023-05-01T03:37:59.386Z,532.3
2023-05-01T03:39:01.342Z,532.3
2023-05-01T03:40:03.208Z,532.2
2023-05-01T03:41:05.146Z,532.1
2023-05-01T03:42:07.025Z,531.6
2023-05-01T03:43:08.849Z,531.4
2023-05-01T03:44:10.595Z,531.4
2023-05-01T03:45:12.566Z,531.2
2023-05-01T03:46:14.629Z,531.3
2023-05-01T03:47:16.445Z,531.1
2023-05-01T03:48:18.086Z,531.5
2023-05-01T03:49:19.871Z,531.2
2023-05-01T03:50:21.713Z,531.1
2023-05-01T03:51:23.644Z,531.2
2023-05-01T03:52:25.491Z,530.8
2023-05-01T03:53:27.362Z,530.5
2023-05-01T03:54:29.030Z,530.4
2023-05-01T03:55:30.844Z,530.4
2023-05-01T03:56:32.808Z,530.3
2023-05-01T03:57:34.517Z,530.6
2023-05-01T03:58:36.099Z,530.2
2023-05-01T03:59:37.938Z,530.7
2023-05-01T04:00:39.998Z,530.4
2023-05-01T04:01:42.077Z,530.4
2023-05-01T04:02:44.534Z,530.2
2023-05-01T04:03:47.015Z,530.3
2023-05-01T04:04:48.936Z,529.9
2023-05-01T04:05:50.785Z,530.3
2023-05-01T04:06:52.969Z,530.1
2023-05-01T04:07:54.791Z,530.3
2023-05-01T04:08:56.632Z,530
2023-05-01T04:09:58.728Z,529.8
2023-05-01T04:11:00.437Z,530
2023-05-01T04:12:02.119Z,530.2
2023-05-01T04:13:03.750Z,530
2023-05-01T04:14:05.349Z,529.7
2023-05-01T04:15:07.128Z,529.8
2023-05-01T04:16:09.176Z,530.1
2023-05-01T04:17:10.920Z,530
2023-05-01T04:18:12.924Z,529.8
2023-05-01T04:19:14.826Z,529.9
2023-05-01T04:20:16.785Z,530.1
2023-05-01T04:21:18.753Z,530.1
2023-05-01T04:22:20.751Z,530.2
2023-05-01T04:23:25.224Z,529.7
2023-05-01T04:24:27.150Z,530.1
2023-05-01T04:25:29.110Z,530.3
2023-05-01T04:26:30.951Z,530.2
2023-05-01T04:27:32.635Z,530.3
2023-05-01T04:28:34.309Z,530
2023-05-01T04:29:36.299Z,529.8
2023-05-01T04:30:38.149Z,530.2
2023-05-01T04:31:40.109Z,530.3
2023-05-01T04:32:42.276Z,530.1
2023-05-01T04:33:44.098Z,530
2023-05-01T04:34:45.732Z,529.8
2023-05-01T04:35:47.494Z,529.6
2023-05-01T04:36:49.141Z,529.7
2023-05-01T04:37:50.985Z,529.4
2023-05-01T04:38:52.618Z,529.6
2023-05-01T04:39:55.597Z,529.5
2023-05-01T04:40:57.571Z,529.3
2023-05-01T04:41:59.421Z,529.7
2023-05-01T04:43:03.957Z,529.6
2023-05-01T04:44:05.799Z,529.4
2023-05-01T04:45:07.740Z,529.5
2023-05-01T04:46:09.814Z,529.2
2023-05-01T04:47:12.292Z,529.4
2023-05-01T04:48:14.235Z,529.2
2023-05-01T04:49:16.154Z,529.3
2023-05-01T04:50:18.120Z,529.3
2023-05-01T04:51:19.957Z,529.3
2023-05-01T04:52:21.622Z,529
2023-05-01T04:53:23.234Z,528.8
2023-05-01T04:54:25.105Z,528.8
2023-05-01T04:55:31.185Z,529.2
2023-05-01T04:56:32.897Z,528.6
2023-05-01T04:57:34.473Z,528.8
2023-05-01T04:58:36.297Z,528.5
2023-05-01T04:59:38.166Z,528.7
2023-05-01T05:00:39.981Z,528.6
2023-05-01T05:01:42.164Z,528.7
2023-05-01T05:02:44.316Z,528.2
2023-05-01T05:03:51.219Z,528
2023-05-01T05:04:55.996Z,528.1
2023-05-01T05:05:58.174Z,528
2023-05-01T05:06:59.999Z,527.8
2023-05-01T05:08:01.757Z,527.7
2023-05-01T05:09:03.446Z,527.5
2023-05-01T05:10:05.031Z,527.7
2023-05-01T05:11:06.776Z,527.4
2023-05-01T05:12:08.632Z,527.5
2023-05-01T05:13:10.386Z,527.6
2023-05-01T05:14:11.949Z,527.2
2023-05-01T05:15:13.811Z,527.2
2023-05-01T05:16:15.947Z,526.9
2023-05-01T05:17:17.635Z,526.8
2023-05-01T05:18:19.502Z,526.7
2023-05-01T05:19:21.118Z,527
2023-05-01T05:20:22.894Z,526.7
2023-05-01T05:21:24.568Z,526.6
2023-05-01T05:22:26.420Z,526.8
2023-05-01T05:23:28.156Z,526.3
2023-05-01T05:24:29.826Z,526.4
2023-05-01T05:25:31.478Z,526.8
2023-05-01T05:26:33.092Z,526.4
2023-05-01T05:27:34.847Z,526.6
2023-05-01T05:28:36.695Z,526.2
2023-05-01T05:29:38.544Z,526.4
2023-05-01T05:30:40.494Z,526
2023-05-01T05:31:42.435Z,526.2
2023-05-01T05:32:44.492Z,526
2023-05-01T05:33:46.270Z,525.9
2023-05-01T05:34:47.878Z,525.8
2023-05-01T05:35:49.460Z,526
2023-05-01T05:36:51.025Z,525.8
2023-05-01T05:37:52.637Z,525.6
2023-05-01T05:38:54.216Z,525.6
2023-05-01T05:39:57.183Z,525.3
2023-05-01T05:40:59.314Z,525.3
2023-05-01T05:42:01.166Z,525.1
2023-05-01T05:43:03.103Z,525.3
2023-05-01T05:44:07.864Z,525
2023-05-01T05:45:09.717Z,525.1
2023-05-01T05:46:11.970Z,525.4
2023-05-01T05:47:13.998Z,525.2
2023-05-01T05:48:16.145Z,524.7
2023-05-01T05:49:18.274Z,525
2023-05-01T05:50:19.985Z,525.2
2023-05-01T05:51:21.578Z,525.2
2023-05-01T05:52:23.453Z,525.4
2023-05-01T05:53:27.030Z,525.3
2023-05-01T05:54:28.989Z,524.9
2023-05-01T05:55:30.680Z,525
2023-05-01T05:56:32.284Z,525.2
2023-05-01T05:57:34.028Z,524.9
2023-05-01T05:58:35.876Z,524.7
2023-05-01T05:59:37.678Z,524.7
2023-05-01T06:00:39.256Z,524.7
2023-05-01T06:01:40.957Z,524.7
2023-05-01T06:02:43.223Z,524.6
2023-05-01T06:03:45.360Z,524.5
2023-05-01T06:04:47.298Z,524.6
2023-05-01T06:05:49.351Z,524.1
2023-05-01T06:06:51.556Z,524.3
2023-05-01T06:07:53.454Z,524.2
2023-05-01T06:08:55.132Z,524.5
2023-05-01T06:09:58.149Z,524
2023-05-01T06:11:00.021Z,524.1
2023-05-01T06:12:01.796Z,524
2023-05-01T06:13:15.405Z,524
2023-05-01T06:14:17.254Z,524
2023-05-01T06:15:19.209Z,524
2023-05-01T06:16:21.294Z,523.8
2023-05-01T06:17:23.336Z,524.1
2023-05-01T06:18:25.363Z,524
2023-05-01T06:19:27.187Z,524
2023-05-01T06:20:29.225Z,524.1
2023-05-01T06:21:31.026Z,524
2023-05-01T06:22:32.971Z,524
2023-05-01T06:23:34.930Z,524
2023-05-01T06:24:36.832Z,523.9
2023-05-01T06:25:38.829Z,524
2023-05-01T06:26:40.782Z,524
2023-05-01T06:27:42.497Z,524.2
2023-05-01T06:28:44.143Z,523.8
2023-05-01T06:29:45.702Z,524.2
2023-05-01T06:30:47.258Z,524
2023-05-01T06:31:49.019Z,524
2023-05-01T06:32:51.205Z,524
2023-05-01T06:33:53.125Z,523.9
2023-05-01T06:34:54.974Z,524
2023-05-01T06:35:56.913Z,524
2023-05-01T06:36:58.769Z,523.8
2023-05-01T06:38:00.668Z,524.2
2023-05-01T06:39:02.684Z,524.3
2023-05-01T06:40:04.341Z,524.2
2023-05-01T06:41:06.168Z,523.8
2023-05-01T06:42:07.943Z,523.9
2023-05-01T06:43:09.687Z,523.8
2023-05-01T06:44:11.411Z,524
2023-05-01T06:45:13.253Z,524.1
2023-05-01T06:46:14.941Z,524.1
2023-05-01T06:47:16.854Z,524.2
2023-05-01T06:48:18.718Z,524.3
2023-05-01T06:49:20.659Z,524.4
2023-05-01T06:50:22.312Z,524.1
2023-05-01T06:51:23.916Z,523.9
2023-05-01T06:52:25.497Z,524.1
2023-05-01T06:53:27.103Z,524.2
2023-05-01T06:54:28.712Z,524
2023-05-01T06:55:30.532Z,524.2
2023-05-01T06:56:32.293Z,524.3
2023-05-01T06:57:34.007Z,524.2
2023-05-01T06:58:35.768Z,523.9
2023-05-01T06:59:37.620Z,524.2
2023-05-01T07:00:39.788Z,524.1
2023-05-01T07:01:41.780Z,523.9
2023-05-01T07:02:44.514Z,524.1
2023-05-01T07:03:46.402Z,524.1
2023-05-01T07:04:48.214Z,524
2023-05-01T07:05:52.815Z,523.8
2023-05-01T07:06:54.925Z,523.8
2023-05-01T07:08:02.468Z,524
2023-05-01T07:09:04.146Z,523.8
2023-05-01T07:10:05.885Z,523.9
2023-05-01T07:11:10.677Z,523.7
2023-05-01T07:12:12.462Z,523.8
2023-05-01T07:13:14.276Z,523.6
2023-05-01T07:14:16.135Z,523.7
2023-05-01T07:15:17.872Z,523.4
2023-05-01T07:16:19.860Z,523.5
2023-05-01T07:17:21.887Z,523.2
2023-05-01T07:18:23.833Z,523.5
2023-05-01T07:19:25.705Z,523.5
2023-05-01T07:20:30.498Z,523.1
2023-05-01T07:21:32.240Z,522.9
2023-05-01T07:22:34.213Z,523.1
2023-05-01T07:23:36.049Z,523.3
2023-05-01T07:24:37.890Z,523
2023-05-01T07:25:39.546Z,523.3
2023-05-01T07:26:41.231Z,523.3
2023-05-01T07:27:42.889Z,522.8
2023-05-01T07:28:44.760Z,523.1
2023-05-01T07:29:46.495Z,523.1
2023-05-01T07:30:48.126Z,523.2
2023-05-01T07:31:50.034Z,523.3
2023-05-01T07:32:52.096Z,523.3
2023-05-01T07:33:54.971Z,523
2023-05-01T07:34:56.841Z,523
2023-05-01T07:35:58.583Z,522.9
2023-05-01T07:37:00.231Z,522.9
2023-05-01T07:38:02.047Z,522.8
2023-05-01T07:39:03.836Z,522.8
2023-05-01T07:40:05.967Z,523.1
2023-05-01T07:41:07.803Z,522.6
2023-05-01T07:42:09.658Z,522.7
2023-05-01T07:43:11.604Z,522.8
2023-05-01T07:44:13.474Z,522.9
2023-05-01T07:45:15.411Z,522.7
2023-05-01T07:46:17.804Z,522.6
2023-05-01T07:47:19.887Z,523
2023-05-01T07:48:21.713Z,523
2023-05-01T07:49:23.287Z,522.9
2023-05-01T07:50:25.404Z,523
2023-05-01T07:51:26.982Z,523
2023-05-01T07:52:28.973Z,523.3
2023-05-01T07:53:30.640Z,523.2
2023-05-01T07:54:32.211Z,523.1
2023-05-01T07:55:34.047Z,523.2
2023-05-01T07:56:35.866Z,523.2
2023-05-01T07:57:37.550Z,523.5
2023-05-01T07:58:39.370Z,523.2
2023-05-01T07:59:41.016Z,523.2
2023-05-01T08:00:42.659Z,523.3
2023-05-01T08:01:44.493Z,523.1
2023-05-01T08:02:46.847Z,523.1
2023-05-01T08:03:52.045Z,523.4
2023-05-01T08:04:54.587Z,523.3
2023-05-01T08:05:56.504Z,523
2023-05-01T08:06:58.739Z,523
2023-05-01T08:08:00.398Z,523
2023-05-01T08:09:02.516Z,523.2
2023-05-01T08:10:07.647Z,523
2023-05-01T08:11:09.427Z,523.2
2023-05-01T08:12:11.291Z,522.9
2023-05-01T08:13:13.148Z,523.4
2023-05-01T08:14:14.816Z,523.1
2023-05-01T08:15:16.444Z,523.1
2023-05-01T08:16:22.763Z,523.2
2023-05-01T08:17:24.755Z,522.9
2023-05-01T08:18:26.595Z,523.2
2023-05-01T08:19:28.436Z,523.1
2023-05-01T08:20:30.085Z,523.4
2023-05-01T08:21:31.710Z,523.6
2023-05-01T08:22:33.351Z,523.3
2023-05-01T08:23:34.965Z,523
2023-05-01T08:24:36.777Z,523.2
2023-05-01T08:25:38.616Z,523.1
2023-05-01T08:26:40.480Z,523.3
2023-05-01T08:27:42.422Z,523.1
2023-05-01T08:28:44.274Z,523
2023-05-01T08:29:46.233Z,523
2023-05-01T08:30:48.192Z,522.4
2023-05-01T08:31:50.078Z,522.9
2023-05-01T08:32:52.230Z,523.1
2023-05-01T08:33:54.109Z,523.1
2023-05-01T08:34:55.991Z,523.3
2023-05-01T08:35:57.845Z,523.2
2023-05-01T08:36:59.858Z,523
2023-05-01T08:38:01.772Z,523.3
2023-05-01T08:39:03.400Z,523.2
2023-05-01T08:40:05.064Z,523.1
2023-05-01T08:41:06.890Z,523.6
2023-05-01T08:42:08.582Z,523.6
2023-05-01T08:43:10.252Z,523.6
2023-05-01T08:44:11.805Z,523.7
2023-05-01T08:45:13.415Z,523.5
2023-05-01T08:46:15.299Z,523.6
2023-05-01T08:47:17.183Z,523.6
2023-05-01T08:48:19.223Z,523.8
2023-05-01T08:49:20.882Z,523.7
2023-05-01T08:50:23.289Z,523.9
2023-05-01T08:51:25.178Z,524.1
2023-05-01T08:52:26.853Z,524
2023-05-01T08:53:28.776Z,524
2023-05-01T08:54:30.646Z,523.8
2023-05-01T08:55:33.090Z,524.1
2023-05-01T08:56:34.941Z,524.3
2023-05-01T08:57:36.907Z,524.5
2023-05-01T08:58:38.685Z,524.1
2023-05-01T08:59:40.377Z,524.3
2023-05-01T09:00:41.944Z,524.1
2023-05-01T09:01:43.996Z,524.5
2023-05-01T09:02:45.937Z,524.1
2023-05-01T09:03:47.973Z,524.5
2023-05-01T09:04:49.840Z,524.2
2023-05-01T09:05:51.611Z,524.7
2023-05-01T09:06:53.899Z,524.8
2023-05-01T09:07:55.860Z,524.4
2023-05-01T09:08:57.583Z,524.8
2023-05-01T09:09:59.603Z,524.8
2023-05-01T09:11:01.551Z,525.1
2023-05-01T09:12:03.310Z,524.7
2023-05-01T09:13:04.995Z,524.9
2023-05-01T09:14:06.805Z,525
2023-05-01T09:15:08.657Z,524.9
2023-05-01T09:16:10.709Z,525.1
2023-05-01T09:17:12.645Z,525.2
2023-05-01T09:18:14.892Z,525.2
2023-05-01T09:19:16.769Z,525.1
2023-05-01T09:20:18.615Z,525.1
2023-05-01T09:21:20.270Z,525.1
2023-05-01T09:22:22.008Z,524.7
2023-05-01T09:23:23.880Z,524.7
2023-05-01T09:24:25.815Z,524.8
2023-05-01T09:25:27.506Z,524.7
2023-05-01T09:26:29.238Z,524.6
2023-05-01T09:27:30.858Z,525.1
2023-05-01T09:28:32.440Z,524.9
2023-05-01T09:29:34.339Z,524.8
2023-05-01T09:30:36.096Z,525.4
2023-05-01T09:31:37.904Z,524.9
2023-05-01T09:32:43.578Z,524.9
2023-05-01T09:33:45.232Z,525
2023-05-01T09:34:46.890Z,525.3
2023-05-01T09:35:48.483Z,525.2
2023-05-01T09:36:50.065Z,524.9
2023-05-01T09:37:51.639Z,524.9
2023-05-01T09:38:53.326Z,525.2
2023-05-01T09:39:55.912Z,524.9
2023-05-01T09:40:57.966Z,524.8
2023-05-01T09:42:00.142Z,525.1
2023-05-01T09:43:01.867Z,525.5
2023-05-01T09:44:03.632Z,525.5
2023-05-01T09:45:05.301Z,525.1
2023-05-01T09:46:07.558Z,524.9
2023-05-01T09:47:09.567Z,525
2023-05-01T09:48:12.492Z,525
2023-05-01T09:49:14.408Z,525.1
2023-05-01T09:50:16.109Z,525.2
2023-05-01T09:51:17.796Z,525.4
2023-05-01T09:52:19.653Z,525.4
2023-05-01T09:53:21.498Z,525.5
2023-05-01T09:54:23.371Z,525.4
2023-05-01T09:55:26.504Z,525.4
2023-05-01T09:56:28.480Z,525.3
2023-05-01T09:57:30.348Z,525.5
2023-05-01T09:58:31.978Z,525.9
2023-05-01T09:59:33.572Z,525.9
2023-05-01T10:00:35.184Z,525.8
2023-05-01T10:01:37.305Z,526
2023-05-01T10:02:39.636Z,525.9
2023-05-01T10:03:42.362Z,526.1
2023-05-01T10:04:44.407Z,526.3
2023-05-01T10:05:46.267Z,526.2
2023-05-01T10:06:48.460Z,526.5
2023-05-01T10:07:50.281Z,526.1
2023-05-01T10:08:51.932Z,526.3
2023-05-01T10:09:53.914Z,526.5
2023-05-01T10:10:55.927Z,526.3
2023-05-01T10:11:58.302Z,526.1
2023-05-01T10:13:00.144Z,526.3
2023-05-01T10:14:01.994Z,526.1
2023-05-01T10:15:27.205Z,526.1
2023-05-01T10:16:29.159Z,526.4
2023-05-01T10:17:31.038Z,526.6
2023-05-01T10:18:32.842Z,526.6
2023-05-01T10:19:34.571Z,526.7
2023-05-01T10:20:36.433Z,527
2023-05-01T10:21:38.320Z,526.6
2023-05-01T10:22:40.147Z,527
2023-05-01T10:23:41.784Z,527.3
2023-05-01T10:24:43.421Z,526.8
2023-05-01T10:25:45.216Z,527.1
2023-05-01T10:26:47.016Z,527.5
2023-05-01T10:27:48.870Z,527.1
2023-05-01T10:28:50.956Z,527
2023-05-01T10:29:52.685Z,527.1
2023-05-01T10:30:54.868Z,527.1
2023-05-01T10:31:57.455Z,527.2
2023-05-01T10:32:59.683Z,527.2
2023-05-01T10:34:01.711Z,527.6
2023-05-01T10:35:03.586Z,527.4
2023-05-01T10:36:05.304Z,527.4
2023-05-01T10:37:07.170Z,527
2023-05-01T10:38:08.881Z,527
2023-05-01T10:39:10.497Z,526.8
2023-05-01T10:40:12.123Z,526.8
2023-05-01T10:41:13.728Z,527.1
2023-05-01T10:42:15.605Z,527.2
2023-05-01T10:43:17.544Z,527.3
2023-05-01T10:44:19.635Z,526.9
2023-05-01T10:45:21.551Z,527.3
2023-05-01T10:46:23.548Z,527.3
2023-05-01T10:47:26.114Z,527.6
2023-05-01T10:48:28.025Z,527.3
2023-05-01T10:49:29.869Z,527.3
2023-05-01T10:50:31.820Z,527.6
2023-05-01T10:51:36.237Z,527.1
2023-05-01T10:52:38.086Z,527.2
2023-05-01T10:53:39.936Z,526.8
2023-05-01T10:54:41.807Z,526.3
2023-05-01T10:55:43.741Z,526.3
2023-05-01T10:56:45.503Z,526.5
2023-05-01T10:57:47.336Z,527
2023-05-01T10:58:49.151Z,527
2023-05-01T10:59:50.927Z,527.2
2023-05-01T11:00:52.887Z,526.7
2023-05-01T11:01:55.157Z,527.1
2023-05-01T11:02:57.193Z,527.2
2023-05-01T11:03:59.154Z,527.2
2023-05-01T11:05:02.100Z,527.2
2023-05-01T11:06:04.571Z,527.7
2023-05-01T11:07:06.781Z,527.1
2023-05-01T11:08:08.498Z,526.6
2023-05-01T11:09:10.457Z,527
2023-05-01T11:10:12.312Z,527.1
2023-05-01T11:11:13.954Z,526.9
2023-05-01T11:12:15.831Z,526.9
2023-05-01T11:13:17.455Z,526.9
2023-05-01T11:14:19.121Z,526.7
2023-05-01T11:15:20.839Z,526.6
2023-05-01T11:16:22.799Z,527
2023-05-01T11:17:24.756Z,527.4
2023-05-01T11:18:26.393Z,527.3
2023-05-01T11:19:29.982Z,527
2023-05-01T11:20:31.818Z,527.2
2023-05-01T11:21:33.564Z,527
2023-05-01T11:22:35.183Z,526.5
2023-05-01T11:23:36.856Z,526.7
2023-05-01T11:24:38.724Z,526.9
2023-05-01T11:25:40.362Z,526.6
2023-05-01T11:26:42.347Z,526.1
2023-05-01T11:27:44.157Z,526.1
2023-05-01T11:28:45.774Z,526.2
2023-05-01T11:29:47.432Z,525.8
2023-05-01T11:30:49.408Z,526.3
2023-05-01T11:31:54.569Z,526.4
2023-05-01T11:32:56.389Z,526.5
2023-05-01T11:33:58.241Z,526.3
2023-05-01T11:35:00.901Z,526.2
2023-05-01T11:36:02.765Z,526.7
2023-05-01T11:37:04.605Z,526
2023-05-01T11:38:06.443Z,526.3
2023-05-01T11:39:08.295Z,526.3
2023-05-01T11:40:10.147Z,526.4
2023-05-01T11:41:12.326Z,526.1
2023-05-01T11:42:14.500Z,525.3
2023-05-01T11:43:16.454Z,525.8
2023-05-01T11:44:18.486Z,525.9
2023-05-01T11:45:20.316Z,526.1
2023-05-01T11:46:22.325Z,526
2023-05-01T11:47:24.220Z,526
2023-05-01T11:48:26.070Z,525.9
2023-05-01T11:49:28.033Z,525.9
2023-05-01T11:50:29.782Z,525.9
2023-05-01T11:51:31.520Z,526.2
2023-05-01T11:52:33.278Z,525.7
2023-05-01T11:53:35.125Z,526.3
2023-05-01T11:54:37.074Z,526
2023-05-01T11:55:38.922Z,526.1
2023-05-01T11:56:40.741Z,525.9
2023-05-01T11:57:42.802Z,526.1
2023-05-01T11:58:44.880Z,526
2023-05-01T11:59:46.752Z,525.9
2023-05-01T12:00:48.506Z,526
2023-05-01T12:01:50.779Z,525.8
2023-05-01T12:02:53.211Z,525.6
2023-05-01T12:03:55.596Z,525.8
2023-05-01T12:04:58.736Z,525.7
2023-05-01T12:06:01.035Z,525.9
2023-05-01T12:07:03.072Z,525.6
2023-05-01T12:08:04.909Z,525.2
2023-05-01T12:09:06.771Z,525.2
2023-05-01T12:10:08.451Z,525
2023-05-01T12:11:10.034Z,524.9
2023-05-01T12:12:11.684Z,524.6
2023-05-01T12:13:13.245Z,524.8
2023-05-01T12:14:15.008Z,524.5
2023-05-01T12:15:16.648Z,524.7
2023-05-01T12:16:19.034Z,524.6
2023-05-01T12:17:21.507Z,524.5
2023-05-01T12:18:24.080Z,524.3
2023-05-01T12:19:26.066Z,524
2023-05-01T12:20:27.634Z,524.1
2023-05-01T12:21:29.275Z,524.6
2023-05-01T12:22:30.943Z,523.8
2023-05-01T12:23:32.760Z,524.4
2023-05-01T12:24:34.635Z,524.3
2023-05-01T12:25:36.487Z,524.3
2023-05-01T12:26:38.316Z,524.3
2023-05-01T12:27:40.073Z,524.8
2023-05-01T12:28:41.712Z,524.6
2023-05-01T12:29:43.722Z,524.6
2023-05-01T12:30:45.546Z,524.8
2023-05-01T12:31:47.514Z,524.9
2023-05-01T12:32:49.743Z,524.4
2023-05-01T12:33:51.683Z,524.9
2023-05-01T12:34:53.570Z,524.9
2023-05-01T12:35:55.371Z,525
2023-05-01T12:36:57.221Z,525.1
2023-05-01T12:37:59.069Z,525.3
2023-05-01T12:39:00.816Z,525.3
2023-05-01T12:40:02.439Z,525.2
2023-05-01T12:41:04.098Z,525
2023-05-01T12:42:05.686Z,525.1
2023-05-01T12:43:07.501Z,524.8
2023-05-01T12:44:09.257Z,524.6
2023-05-01T12:45:10.935Z,524.9
2023-05-01T12:46:12.778Z,524.9
2023-05-01T12:47:14.357Z,524.9
2023-05-01T12:48:16.471Z,524.5
2023-05-01T12:49:18.302Z,524.6
2023-05-01T12:50:23.120Z,524.9
2023-05-01T12:51:24.971Z,525.1
2023-05-01T12:52:26.916Z,525.2
2023-05-01T12:53:28.867Z,525.4
2023-05-01T12:54:30.633Z,525.4
2023-05-01T12:55:32.288Z,525.4
2023-05-01T12:56:33.881Z,525.3
2023-05-01T12:57:35.608Z,525.8
2023-05-01T12:58:37.425Z,525.3
2023-05-01T12:59:39.253Z,524.6
2023-05-01T13:00:41.135Z,524.9
2023-05-01T13:01:43.230Z,525
2023-05-01T13:02:45.439Z,525.6
2023-05-01T13:03:47.408Z,525.1
2023-05-01T13:04:49.853Z,525.3
2023-05-01T13:05:51.890Z,524.6
2023-05-01T13:06:54.075Z,525.1
2023-05-01T13:07:55.893Z,524.5
2023-05-01T13:08:57.751Z,524
2023-05-01T13:10:01.924Z,525.3
2023-05-01T13:11:04.188Z,524.8
2023-05-01T13:12:06.166Z,524.9
2023-05-01T13:13:08.120Z,524.7
2023-05-01T13:14:09.989Z,525.1
2023-05-01T13:15:11.814Z,524.9
2023-05-01T13:16:13.928Z,525.3
2023-05-01T13:17:15.714Z,525.1
2023-05-01T13:18:17.568Z,524.8
2023-05-01T13:19:19.429Z,525
2023-05-01T13:20:21.271Z,524.8
2023-05-01T13:21:23.143Z,524.5
2023-05-01T13:22:25.071Z,524.5
2023-05-01T13:23:26.905Z,524.4
2023-05-01T13:24:28.707Z,524.1
2023-05-01T13:25:30.475Z,523.9